createdAt,value
2019-05-06T00:01:25.945Z,61.54
2019-05-06T00:03:56.533Z,61.66
2019-05-06T00:06:26.899Z,61.36
2019-05-06T00:08:57.369Z,61.49
2019-05-06T00:11:27.938Z,61.40
2019-05-06T00:14:00.014Z,61.63
2019-05-06T00:16:30.819Z,62.64
2019-05-06T00:19:00.922Z,62.72
2019-05-06T00:21:31.051Z,62.00
2019-05-06T00:24:01.165Z,61.62
2019-05-06T00:27:04.580Z,61.79
2019-05-06T00:29:35.016Z,61.46
2019-05-06T00:32:05.290Z,61.43
2019-05-06T00:34:36.482Z,61.73
2019-05-06T00:37:06.609Z,61.50
2019-05-06T00:40:11.080Z,61.66
2019-05-06T00:42:55.132Z,64.14
2019-05-06T00:45:25.247Z,63.01
2019-05-06T00:47:55.348Z,62.51
2019-05-06T00:50:25.462Z,62.81
2019-05-06T00:52:56.510Z,63.10
2019-05-06T00:55:27.018Z,63.13
2019-05-06T00:57:57.119Z,63.89
2019-05-06T01:00:33.761Z,62.85
2019-05-06T01:03:04.375Z,62.49
2019-05-06T01:05:34.522Z,62.24
2019-05-06T01:08:05.631Z,62.63
2019-05-06T01:10:35.758Z,62.68
2019-05-06T01:13:21.557Z,62.27
2019-05-06T01:15:51.658Z,63.78
2019-05-06T01:18:21.776Z,63.48
2019-05-06T01:20:54.147Z,62.77
2019-05-06T01:23:24.483Z,62.54
2019-05-06T01:25:54.653Z,62.96
2019-05-06T01:28:24.696Z,63.26
2019-05-06T01:30:54.839Z,63.13
2019-05-06T01:33:24.958Z,62.61
2019-05-06T01:35:55.095Z,62.53
2019-05-06T01:38:53.638Z,61.99
2019-05-06T01:41:49.022Z,62.40
2019-05-06T01:44:19.424Z,61.84
2019-05-06T01:46:49.543Z,61.69
2019-05-06T01:49:19.654Z,62.50
2019-05-06T01:51:49.782Z,62.24
2019-05-06T01:54:19.909Z,62.25
2019-05-06T01:56:50.085Z,61.72
2019-05-06T01:59:20.199Z,62.62
2019-05-06T02:01:58.029Z,62.38
2019-05-06T02:04:24.306Z,62.13
2019-05-06T02:06:54.544Z,62.01
2019-05-06T02:09:24.943Z,61.64
2019-05-06T02:11:55.019Z,61.59
2019-05-06T02:14:25.140Z,61.35
2019-05-06T02:16:55.299Z,61.25
2019-05-06T02:19:25.487Z,62.37
2019-05-06T02:22:17.611Z,63.12
2019-05-06T02:24:57.198Z,62.39
2019-05-06T02:27:27.340Z,62.55
2019-05-06T02:30:05.429Z,62.33
2019-05-06T02:32:45.435Z,62.68
2019-05-06T02:35:26.354Z,62.20
2019-05-06T02:37:56.276Z,61.82
2019-05-06T02:40:28.130Z,62.00
2019-05-06T02:42:58.268Z,61.93
2019-05-06T02:45:28.454Z,61.64
2019-05-06T02:48:16.765Z,61.44
2019-05-06T02:51:16.097Z,61.80
2019-05-06T02:53:46.214Z,61.21
2019-05-06T02:56:16.337Z,61.35
2019-05-06T02:58:46.494Z,62.45
2019-05-06T03:01:16.612Z,62.25
2019-05-06T03:03:46.774Z,61.43
2019-05-06T03:06:16.919Z,61.06
2019-05-06T03:08:47.333Z,61.47
2019-05-06T03:11:17.479Z,63.29
2019-05-06T03:13:48.829Z,62.61
2019-05-06T03:16:20.045Z,62.16
2019-05-06T03:18:53.098Z,62.04
2019-05-06T03:21:37.340Z,61.54
2019-05-06T03:24:25.289Z,61.72
2019-05-06T03:26:56.863Z,61.19
2019-05-06T03:29:27.574Z,61.80
2019-05-06T03:31:58.002Z,62.32
2019-05-06T03:34:52.814Z,62.75
2019-05-06T03:37:00.058Z,62.26
2019-05-06T03:39:30.180Z,63.87
2019-05-06T03:42:00.399Z,65.13
2019-05-06T03:44:33.080Z,63.27
2019-05-06T03:47:23.266Z,62.48
2019-05-06T03:49:54.618Z,64.10
2019-05-06T03:52:27.811Z,64.25
2019-05-06T03:54:59.361Z,63.97
2019-05-06T03:57:35.478Z,63.12
2019-05-06T04:00:05.231Z,64.26
2019-05-06T04:02:39.385Z,61.93
2019-05-06T04:05:07.678Z,63.49
2019-05-06T04:07:39.166Z,63.99
2019-05-06T04:10:09.534Z,64.24
2019-05-06T04:12:43.335Z,65.42
2019-05-06T04:15:14.168Z,64.73
2019-05-06T04:17:53.326Z,64.07
2019-05-06T04:20:43.845Z,64.75
2019-05-06T04:23:33.419Z,64.22
2019-05-06T04:26:13.898Z,66.31
2019-05-06T04:28:44.066Z,65.44
2019-05-06T04:31:14.236Z,63.69
2019-05-06T04:33:55.718Z,64.78
2019-05-06T04:36:16.398Z,65.54
2019-05-06T04:38:46.522Z,65.19
2019-05-06T04:41:16.683Z,64.78
2019-05-06T04:43:46.811Z,61.71
2019-05-06T04:46:17.207Z,60.69
2019-05-06T04:48:47.623Z,63.45
2019-05-06T04:51:17.839Z,62.59
2019-05-06T04:53:48.400Z,63.13
2019-05-06T04:56:18.629Z,64.76
2019-05-06T04:58:49.247Z,64.98
2019-05-06T05:01:19.414Z,65.32
2019-05-06T05:03:49.644Z,65.13
2019-05-06T05:06:19.803Z,63.84
2019-05-06T05:08:49.947Z,62.74
2019-05-06T05:11:28.236Z,63.52
2019-05-06T05:14:22.865Z,63.24
2019-05-06T05:17:12.840Z,63.48
2019-05-06T05:19:43.487Z,63.98
2019-05-06T05:22:14.249Z,65.01
2019-05-06T05:24:46.311Z,62.33
2019-05-06T05:27:21.849Z,62.09
2019-05-06T05:29:52.304Z,64.26
2019-05-06T05:32:22.737Z,63.28
2019-05-06T05:34:52.893Z,63.62
2019-05-06T05:37:23.435Z,63.88
2019-05-06T05:39:53.628Z,63.35
2019-05-06T05:42:42.272Z,63.06
2019-05-06T05:45:12.976Z,62.38
2019-05-06T05:47:43.453Z,61.37
2019-05-06T05:50:23.252Z,61.21
2019-05-06T05:52:54.389Z,60.85
2019-05-06T05:55:24.514Z,59.75
2019-05-06T05:57:54.636Z,60.72
2019-05-06T06:00:27.625Z,61.66
2019-05-06T06:02:57.848Z,61.18
2019-05-06T06:05:28.382Z,61.30
2019-05-06T06:07:58.535Z,60.00
2019-05-06T06:10:52.537Z,60.51
2019-05-06T06:13:22.885Z,61.96
2019-05-06T06:16:18.831Z,61.25
2019-05-06T06:19:08.142Z,60.10
2019-05-06T06:21:44.852Z,61.25
2019-05-06T06:24:28.282Z,60.27
2019-05-06T06:26:58.584Z,59.78
2019-05-06T06:29:29.506Z,59.34
2019-05-06T06:32:22.840Z,57.61
2019-05-06T06:35:10.068Z,57.31
2019-05-06T06:37:48.886Z,57.18
2019-05-06T06:40:22.321Z,55.56
2019-05-06T06:42:57.246Z,55.86
2019-05-06T06:45:27.363Z,56.27
2019-05-06T06:47:57.580Z,52.32
2019-05-06T06:50:27.722Z,55.36
2019-05-06T06:52:58.899Z,52.39
2019-05-06T06:55:29.052Z,50.36
2019-05-06T06:58:22.722Z,52.03
2019-05-06T07:01:12.344Z,51.81
2019-05-06T07:04:10.295Z,50.44
2019-05-06T07:06:47.828Z,51.43
2019-05-06T07:09:17.950Z,50.08
2019-05-06T07:11:48.131Z,49.15
2019-05-06T07:14:18.285Z,49.70
2019-05-06T07:16:48.422Z,47.95
2019-05-06T07:19:24.499Z,47.46
2019-05-06T07:21:56.839Z,46.87
2019-05-06T07:24:27.983Z,46.24
2019-05-06T07:27:26.275Z,47.01
2019-05-06T07:29:56.441Z,47.48
2019-05-06T07:32:26.712Z,47.55
2019-05-06T07:34:56.868Z,47.41
2019-05-06T07:37:27.065Z,46.96
2019-05-06T07:39:57.219Z,46.35
2019-05-06T07:42:43.204Z,45.91
2019-05-06T07:45:44.875Z,45.92
2019-05-06T07:48:16.504Z,45.98
2019-05-06T07:50:49.155Z,45.50
2019-05-06T07:53:18.566Z,44.93
2019-05-06T07:55:48.698Z,44.77
2019-05-06T07:58:18.840Z,44.42
2019-05-06T08:00:48.968Z,44.14
2019-05-06T08:03:19.097Z,45.24
2019-05-06T08:05:57.497Z,45.28
2019-05-06T08:08:23.004Z,44.62
2019-05-06T08:10:52.886Z,45.13
2019-05-06T08:13:23.008Z,44.87
2019-05-06T08:15:53.738Z,44.93
2019-05-06T08:18:24.079Z,44.84
2019-05-06T08:20:54.244Z,45.25
2019-05-06T08:23:45.468Z,45.14
2019-05-06T08:26:17.547Z,46.00
2019-05-06T08:28:47.512Z,46.38
2019-05-06T08:31:19.519Z,46.41
2019-05-06T08:33:49.648Z,46.08
2019-05-06T08:36:26.861Z,46.10
2019-05-06T08:38:57.515Z,46.26
2019-05-06T08:41:28.012Z,46.22
2019-05-06T08:43:58.339Z,46.09
2019-05-06T08:46:28.467Z,46.10
2019-05-06T08:48:58.612Z,46.39
2019-05-06T08:51:43.966Z,46.78
2019-05-06T08:54:23.544Z,46.50
2019-05-06T08:56:53.693Z,46.02
2019-05-06T08:59:24.155Z,46.02
2019-05-06T09:01:54.744Z,45.78
2019-05-06T09:04:24.902Z,47.21
2019-05-06T09:06:55.102Z,47.13
2019-05-06T09:09:26.683Z,47.27
2019-05-06T09:11:56.843Z,46.45
2019-05-06T09:14:26.997Z,46.40
2019-05-06T09:16:57.115Z,46.82
2019-05-06T09:19:27.238Z,48.10
2019-05-06T09:21:57.442Z,49.95
2019-05-06T09:24:27.557Z,52.10
2019-05-06T09:27:07.127Z,53.31
2019-05-06T09:29:44.670Z,53.51
2019-05-06T09:32:43.033Z,54.26
2019-05-06T09:35:14.614Z,54.00
2019-05-06T09:37:44.791Z,54.21
2019-05-06T09:40:15.134Z,53.98
2019-05-06T09:42:45.255Z,54.98
2019-05-06T09:45:15.795Z,51.93
2019-05-06T09:48:05.064Z,49.90
2019-05-06T09:50:38.644Z,47.19
2019-05-06T09:53:13.093Z,46.56
2019-05-06T09:56:05.405Z,46.34
2019-05-06T09:58:38.524Z,45.87
2019-05-06T10:01:09.148Z,46.09
2019-05-06T10:03:42.283Z,46.90
2019-05-06T10:06:13.148Z,48.86
2019-05-06T10:08:43.385Z,48.96
2019-05-06T10:11:13.540Z,49.45
2019-05-06T10:13:43.669Z,51.20
2019-05-06T10:16:14.104Z,51.48
2019-05-06T10:18:44.303Z,53.12
2019-05-06T10:21:14.443Z,53.69
2019-05-06T10:23:44.707Z,54.24
2019-05-06T10:26:14.803Z,55.21
2019-05-06T10:28:52.460Z,56.75
2019-05-06T10:31:23.565Z,58.08
2019-05-06T10:34:14.057Z,58.55
2019-05-06T10:37:12.542Z,57.95
2019-05-06T10:39:40.553Z,56.61
2019-05-06T10:42:13.724Z,57.80
2019-05-06T10:45:34.587Z,57.90
2019-05-06T10:48:04.739Z,59.78
2019-05-06T10:50:39.119Z,59.54
2019-05-06T10:53:23.054Z,56.78
2019-05-06T10:55:56.320Z,54.65
2019-05-06T10:58:26.475Z,54.50
2019-05-06T11:01:18.670Z,53.36
2019-05-06T11:03:48.819Z,52.67
2019-05-06T11:06:18.938Z,52.14
2019-05-06T11:08:49.074Z,51.44
2019-05-06T11:11:31.539Z,51.61
2019-05-06T11:13:52.274Z,51.26
2019-05-06T11:16:23.764Z,50.93
2019-05-06T11:18:53.970Z,50.78
2019-05-06T11:21:24.119Z,50.43
2019-05-06T11:23:54.275Z,50.61
2019-05-06T11:26:24.441Z,50.99
2019-05-06T11:28:58.585Z,51.28
2019-05-06T11:31:44.007Z,53.37
2019-05-06T11:34:45.152Z,54.59
2019-05-06T11:37:47.128Z,55.38
2019-05-06T11:40:16.486Z,57.88
2019-05-06T11:42:44.133Z,57.73
2019-05-06T11:45:14.564Z,58.21
2019-05-06T11:47:44.689Z,57.41
2019-05-06T11:50:15.023Z,55.39
2019-05-06T11:52:45.187Z,53.95
2019-05-06T11:55:27.888Z,52.84
2019-05-06T11:57:47.480Z,51.26
2019-05-06T12:00:20.550Z,50.24
2019-05-06T12:02:53.150Z,49.47
2019-05-06T12:05:22.597Z,49.70
2019-05-06T12:08:03.743Z,47.95
2019-05-06T12:10:24.690Z,46.33
2019-05-06T12:12:54.804Z,46.27
2019-05-06T12:15:25.105Z,46.59
2019-05-06T12:17:55.324Z,45.21
2019-05-06T12:20:25.476Z,46.36
2019-05-06T12:22:55.595Z,45.99
2019-05-06T12:25:25.758Z,44.32
2019-05-06T12:27:55.868Z,44.46
2019-05-06T12:30:25.992Z,44.05
2019-05-06T12:33:15.080Z,43.84
2019-05-06T12:35:47.974Z,44.01
2019-05-06T12:38:30.629Z,43.54
2019-05-06T12:41:00.016Z,42.25
2019-05-06T12:43:45.142Z,42.17
2019-05-06T12:46:22.981Z,41.75
2019-05-06T12:48:53.117Z,41.50
2019-05-06T12:51:23.262Z,41.66
2019-05-06T12:53:53.733Z,41.86
2019-05-06T12:56:23.876Z,40.91
2019-05-06T12:58:54.019Z,41.22
2019-05-06T13:01:24.142Z,41.29
2019-05-06T13:03:54.269Z,41.49
2019-05-06T13:06:26.380Z,41.77
2019-05-06T13:09:01.494Z,40.63
2019-05-06T13:11:28.141Z,40.57
2019-05-06T13:14:00.797Z,39.73
2019-05-06T13:16:32.914Z,39.74
2019-05-06T13:19:03.355Z,39.67
2019-05-06T13:21:33.795Z,39.63
2019-05-06T13:24:06.270Z,39.31
2019-05-06T13:26:37.481Z,40.14
2019-05-06T13:29:13.264Z,39.86
2019-05-06T13:31:43.915Z,41.00
2019-05-06T13:34:17.083Z,42.20
2019-05-06T13:36:47.579Z,43.73
2019-05-06T13:39:17.830Z,44.61
2019-05-06T13:41:47.954Z,45.48
2019-05-06T13:44:22.830Z,47.54
2019-05-06T13:46:54.614Z,48.46
2019-05-06T13:49:53.158Z,49.36
2019-05-06T13:52:29.013Z,50.48
2019-05-06T13:54:59.142Z,53.11
2019-05-06T13:57:29.412Z,54.40
2019-05-06T13:59:59.489Z,54.34
2019-05-06T14:02:36.460Z,52.76
2019-05-06T14:05:09.229Z,53.44
2019-05-06T14:07:39.441Z,53.77
2019-05-06T14:10:10.064Z,52.35
2019-05-06T14:12:42.460Z,51.80
2019-05-06T14:15:13.521Z,51.50
2019-05-06T14:17:44.731Z,51.18
2019-05-06T14:20:16.232Z,50.50
2019-05-06T14:22:46.414Z,50.52
2019-05-06T14:25:34.109Z,50.47
2019-05-06T14:28:14.511Z,50.25
2019-05-06T14:31:02.852Z,49.63
2019-05-06T14:33:32.479Z,50.02
2019-05-06T14:36:03.340Z,50.01
2019-05-06T14:38:33.691Z,49.93
2019-05-06T14:41:12.881Z,49.77
2019-05-06T14:43:45.640Z,49.99
2019-05-06T14:46:15.882Z,49.53
2019-05-06T14:48:47.259Z,50.05
2019-05-06T14:51:17.421Z,49.42
2019-05-06T14:53:47.578Z,49.86
2019-05-06T14:56:33.538Z,49.94
2019-05-06T14:59:04.372Z,49.66
2019-05-06T15:01:36.353Z,49.37
2019-05-06T15:04:06.621Z,49.28
2019-05-06T15:06:36.859Z,48.92
2019-05-06T15:09:13.112Z,49.87
2019-05-06T15:11:43.369Z,49.21
2019-05-06T15:14:13.927Z,49.33
2019-05-06T15:16:44.081Z,48.42
2019-05-06T15:19:14.244Z,47.46
2019-05-06T15:21:45.339Z,48.22
2019-05-06T15:24:15.503Z,47.66
2019-05-06T15:26:45.643Z,47.47
2019-05-06T15:29:15.786Z,47.62
2019-05-06T15:32:13.034Z,47.58
2019-05-06T15:34:55.359Z,47.35
2019-05-06T15:37:37.264Z,48.36
2019-05-06T15:40:09.211Z,47.40
2019-05-06T15:42:39.341Z,48.72
2019-05-06T15:45:09.713Z,47.34
2019-05-06T15:47:42.325Z,48.07
2019-05-06T15:50:12.807Z,49.59
2019-05-06T15:52:43.747Z,49.03
2019-05-06T15:55:14.022Z,49.05
2019-05-06T15:57:44.141Z,49.19
2019-05-06T16:00:19.665Z,49.65
2019-05-06T16:02:49.937Z,48.68
2019-05-06T16:05:25.774Z,48.25
2019-05-06T16:07:52.858Z,48.09
2019-05-06T16:10:23.584Z,48.83
2019-05-06T16:12:53.874Z,49.57
2019-05-06T16:15:24.911Z,48.74
2019-05-06T16:17:55.575Z,48.11
2019-05-06T16:20:26.680Z,48.90
2019-05-06T16:23:05.207Z,48.01
2019-05-06T16:25:35.351Z,48.67
2019-05-06T16:28:05.540Z,49.41
2019-05-06T16:30:35.855Z,49.48
2019-05-06T16:33:06.079Z,49.20
2019-05-06T16:35:36.217Z,49.43
2019-05-06T16:38:06.381Z,49.98
2019-05-06T16:40:36.530Z,50.28
2019-05-06T16:43:06.665Z,50.17
2019-05-06T16:45:36.828Z,50.17
2019-05-06T16:48:07.944Z,50.13
2019-05-06T16:50:38.391Z,50.29
2019-05-06T16:53:08.590Z,50.51
2019-05-06T16:55:55.707Z,50.25
2019-05-06T16:58:28.351Z,50.24
2019-05-06T17:00:59.464Z,50.41
2019-05-06T17:03:35.631Z,50.24
2019-05-06T17:06:14.883Z,49.99
2019-05-06T17:08:45.015Z,50.15
2019-05-06T17:11:27.032Z,50.14
2019-05-06T17:13:47.024Z,50.11
2019-05-06T17:16:17.196Z,49.84
2019-05-06T17:18:48.308Z,49.29
2019-05-06T17:21:18.451Z,49.35
2019-05-06T17:23:48.634Z,49.02
2019-05-06T17:26:22.533Z,49.39
2019-05-06T17:29:06.166Z,49.84
2019-05-06T17:32:11.999Z,49.18
2019-05-06T17:34:46.743Z,49.17
2019-05-06T17:37:36.987Z,49.31
2019-05-06T17:40:11.724Z,49.46
2019-05-06T17:42:42.298Z,50.21
2019-05-06T17:45:32.231Z,49.84
2019-05-06T17:48:12.744Z,49.69
2019-05-06T17:51:04.884Z,49.62
2019-05-06T17:53:39.178Z,49.61
2019-05-06T17:56:09.525Z,49.47
2019-05-06T17:58:39.817Z,49.57
2019-05-06T18:01:13.241Z,49.53
2019-05-06T18:03:43.641Z,49.35
2019-05-06T18:06:14.442Z,49.53
2019-05-06T18:08:44.711Z,49.60
2019-05-06T18:11:16.107Z,49.71
2019-05-06T18:13:46.515Z,49.42
2019-05-06T18:16:16.779Z,49.54
2019-05-06T18:18:46.961Z,49.54
2019-05-06T18:21:17.137Z,49.66
2019-05-06T18:23:49.548Z,49.42
2019-05-06T18:26:19.309Z,49.46
2019-05-06T18:28:49.455Z,49.38
2019-05-06T18:31:19.607Z,49.30
2019-05-06T18:33:49.759Z,49.50
2019-05-06T18:36:22.716Z,50.22
2019-05-06T18:38:53.096Z,49.90
2019-05-06T18:41:23.655Z,49.96
2019-05-06T18:43:54.057Z,50.00
2019-05-06T18:46:24.270Z,50.33
2019-05-06T18:48:54.491Z,50.52
2019-05-06T18:51:26.278Z,50.62
2019-05-06T18:53:56.573Z,50.71
2019-05-06T18:56:26.740Z,50.89
2019-05-06T18:58:56.893Z,51.04
2019-05-06T19:01:27.021Z,51.12
2019-05-06T19:04:24.156Z,51.16
2019-05-06T19:07:09.344Z,51.49
2019-05-06T19:09:35.055Z,51.39
2019-05-06T19:12:07.117Z,51.65
2019-05-06T19:14:37.659Z,52.07
2019-05-06T19:17:08.127Z,52.57
2019-05-06T19:19:38.535Z,53.57
2019-05-06T19:22:08.784Z,54.25
2019-05-06T19:24:39.038Z,54.31
2019-05-06T19:27:12.778Z,55.44
2019-05-06T19:29:43.440Z,57.06
2019-05-06T19:32:13.609Z,57.36
2019-05-06T19:34:43.790Z,59.23
2019-05-06T19:37:15.080Z,60.60
2019-05-06T19:39:45.290Z,60.05
2019-05-06T19:42:15.475Z,61.06
2019-05-06T19:44:45.654Z,61.50
2019-05-06T19:47:15.762Z,62.42
2019-05-06T19:49:45.922Z,62.05
2019-05-06T19:52:16.071Z,62.20
2019-05-06T19:54:46.302Z,61.87
2019-05-06T19:57:16.447Z,61.16
2019-05-06T19:59:47.629Z,61.54
2019-05-06T20:02:18.206Z,63.02
2019-05-06T20:04:53.221Z,62.53
2019-05-06T20:07:35.785Z,61.80
2019-05-06T20:10:45.124Z,62.38
2019-05-06T20:13:15.370Z,62.79
2019-05-06T20:15:45.521Z,62.43
2019-05-06T20:18:15.657Z,61.59
2019-05-06T20:20:47.355Z,61.84
2019-05-06T20:23:17.468Z,61.19
2019-05-06T20:25:49.030Z,60.37
2019-05-06T20:28:19.171Z,60.61
2019-05-06T20:30:49.321Z,60.01
2019-05-06T20:33:22.038Z,60.04
2019-05-06T20:35:52.740Z,59.95
2019-05-06T20:38:23.344Z,60.04
2019-05-06T20:40:53.477Z,61.38
2019-05-06T20:43:24.175Z,60.55
2019-05-06T20:45:54.508Z,60.67
2019-05-06T20:48:25.359Z,61.46
2019-05-06T20:50:55.485Z,60.76
2019-05-06T20:53:26.537Z,61.09
2019-05-06T20:55:57.323Z,61.15
2019-05-06T20:58:27.506Z,62.06
2019-05-06T21:00:57.730Z,63.72
2019-05-06T21:03:28.048Z,63.21
2019-05-06T21:05:58.198Z,63.35
2019-05-06T21:08:29.479Z,63.90
2019-05-06T21:10:59.854Z,63.91
2019-05-06T21:13:33.053Z,63.20
2019-05-06T21:16:02.298Z,63.09
2019-05-06T21:18:32.621Z,62.87
2019-05-06T21:21:02.799Z,63.11
2019-05-06T21:23:32.991Z,64.02
2019-05-06T21:26:03.429Z,63.72
2019-05-06T21:28:33.627Z,63.57
2019-05-06T21:31:03.757Z,64.07
2019-05-06T21:33:33.882Z,63.57
2019-05-06T21:36:04.038Z,63.36
2019-05-06T21:38:34.198Z,64.11
2019-05-06T21:41:04.339Z,63.75
2019-05-06T21:43:45.856Z,62.56
2019-05-06T21:46:06.303Z,62.55
2019-05-06T21:48:36.429Z,62.94
2019-05-06T21:51:06.571Z,63.48
2019-05-06T21:53:36.692Z,63.06
2019-05-06T21:56:06.842Z,62.29
2019-05-06T21:58:36.980Z,62.74
2019-05-06T22:01:08.368Z,63.77
2019-05-06T22:03:40.105Z,63.06
2019-05-06T22:06:10.214Z,62.37
2019-05-06T22:08:42.419Z,63.05
2019-05-06T22:11:12.223Z,62.69
2019-05-06T22:13:42.690Z,62.67
2019-05-06T22:16:12.842Z,62.40
2019-05-06T22:18:45.612Z,63.03
2019-05-06T22:21:25.643Z,63.95
2019-05-06T22:23:57.155Z,62.81
2019-05-06T22:26:27.698Z,62.48
2019-05-06T22:28:58.245Z,62.80
2019-05-06T22:31:28.651Z,63.55
2019-05-06T22:33:59.322Z,63.63
2019-05-06T22:36:29.437Z,63.10
2019-05-06T22:38:59.548Z,64.21
2019-05-06T22:41:29.682Z,64.26
2019-05-06T22:44:12.421Z,63.77
2019-05-06T22:46:32.926Z,64.80
2019-05-06T22:49:03.198Z,64.56
2019-05-06T22:51:33.389Z,64.42
2019-05-06T22:54:03.515Z,65.11
2019-05-06T22:56:33.767Z,64.88
2019-05-06T22:59:03.919Z,64.50
2019-05-06T23:01:56.038Z,64.73
2019-05-06T23:04:27.895Z,64.32
2019-05-06T23:06:58.067Z,64.76
2019-05-06T23:09:28.197Z,64.49
2019-05-06T23:11:58.333Z,64.46
2019-05-06T23:14:31.766Z,63.49
2019-05-06T23:17:00.287Z,63.55
2019-05-06T23:19:31.795Z,63.42
2019-05-06T23:22:04.214Z,63.60
2019-05-06T23:24:34.022Z,64.41
2019-05-06T23:27:04.167Z,63.76
2019-05-06T23:29:35.241Z,63.47
2019-05-06T23:32:05.531Z,63.81
2019-05-06T23:34:35.645Z,64.03
2019-05-06T23:37:23.290Z,64.02
2019-05-06T23:40:42.843Z,64.56
2019-05-06T23:43:49.175Z,63.71
2019-05-06T23:46:55.264Z,64.67
2019-05-06T23:50:03.517Z,65.06
2019-05-06T23:53:12.316Z,65.12
2019-05-06T23:56:18.621Z,64.66
2019-05-06T23:58:48.759Z,65.13
